Time;durP1;ratioP1;P1;durP2;ratioP2;P2;SDS_P1;SDS_P2;PMS_P1;PMS_P2;Temp;Humidity;BMP_temperature;BMP_pressure;BME280_temperature;BME280_humidity;BME280_pressure;Samples;Min_cycle;Max_cycle;Signal;HPM_P1;HPM_P2
2023/10/17 00:02:27;;;;;;;3.20;2.23;;;;;;;-145.68;100.00;75083.16;10361713;28;20642;-66
2023/10/17 00:07:27;;;;;;;4.97;2.83;;;;;;;-145.68;100.00;75083.16;10314887;28;20218;-66
2023/10/17 00:12:39;;;;;;;7.27;2.57;;;;;;;-145.68;100.00;75083.16;10350479;28;20584;-66
2023/10/17 00:17:39;;;;;;;4.87;2.67;;;;;;;-145.68;100.00;75085.16;10350311;28;20243;-66
2023/10/17 00:22:42;;;;;;;3.93;2.60;;;;;;;-145.68;100.00;75091.16;10342078;28;20653;-66
2023/10/17 00:27:43;;;;;;;3.77;1.97;;;;;;;-145.68;100.00;75079.16;10360476;28;20296;-66
2023/10/17 00:32:49;;;;;;;5.47;2.03;;;;;;;-145.68;100.00;75075.16;10379453;28;20232;-66
2023/10/17 00:37:56;;;;;;;3.03;1.80;;;;;;;-145.68;100.00;75089.16;10351038;28;20225;-66
2023/10/17 00:42:58;;;;;;;5.57;2.37;;;;;;;-145.68;100.00;75097.16;10362798;28;20189;-66
2023/10/17 00:47:59;;;;;;;4.50;2.37;;;;;;;-145.68;100.00;75089.16;10354412;28;20217;-66
2023/10/17 00:53:00;;;;;;;3.33;2.00;;;;;;;-145.68;100.00;75089.16;10348038;28;20292;-66
2023/10/17 00:58:02;;;;;;;3.33;1.90;;;;;;;-145.68;100.00;75087.16;10346827;28;20216;-66
2023/10/17 01:03:10;;;;;;;3.60;2.00;;;;;;;-145.68;100.00;75083.16;10348471;28;20216;-66
2023/10/17 01:08:10;;;;;;;5.03;2.00;;;;;;;-145.68;100.00;75095.16;10350671;28;20214;-66
2023/10/17 01:13:11;;;;;;;3.07;1.87;;;;;;;-145.68;100.00;75089.16;10349206;28;20220;-66
2023/10/17 01:18:11;;;;;;;3.90;1.70;;;;;;;-145.68;100.00;75085.16;10347626;28;20283;-66
2023/10/17 01:23:11;;;;;;;7.90;2.13;;;;;;;-145.68;100.00;75097.16;10340667;28;20186;-66
2023/10/17 01:28:13;;;;;;;7.17;2.00;;;;;;;-145.68;100.00;75091.16;10357972;28;20236;-66
2023/10/17 01:33:14;;;;;;;4.47;1.90;;;;;;;-145.68;100.00;75087.16;10341170;28;20305;-66
2023/10/17 01:38:16;;;;;;;3.50;1.83;;;;;;;-145.68;100.00;75097.16;10348815;28;20340;-66
2023/10/17 01:43:16;;;;;;;4.77;1.90;;;;;;;-145.68;100.00;75091.16;10350499;28;20554;-66
2023/10/17 01:48:21;;;;;;;5.07;2.10;;;;;;;-145.68;100.00;75069.16;10349760;28;20217;-66
2023/10/17 01:53:22;;;;;;;5.93;2.27;;;;;;;-145.68;100.00;75063.16;10365284;28;20252;-66
2023/10/17 01:58:22;;;;;;;3.40;1.97;;;;;;;-145.68;100.00;75059.16;10340781;28;20651;-67
2023/10/17 02:03:23;;;;;;;6.13;2.30;;;;;;;-145.68;100.00;75067.16;10358405;28;20181;-66
2023/10/17 02:08:26;;;;;;;2.87;2.10;;;;;;;-145.68;100.00;75087.16;10353564;28;20221;-66
2023/10/17 02:13:26;;;;;;;5.07;2.60;;;;;;;-145.68;100.00;75087.16;10361519;28;20217;-66
2023/10/17 02:18:28;;;;;;;4.57;2.53;;;;;;;-145.68;100.00;75091.16;10391260;22;20205;-70
2023/10/17 02:23:29;;;;;;;6.70;3.40;;;;;;;-145.68;100.00;75105.16;10459370;28;20225;-69
2023/10/17 02:28:38;;;;;;;2.73;2.00;;;;;;;-145.68;100.00;75121.16;10468281;28;20195;-68
2023/10/17 02:33:44;;;;;;;4.50;2.20;;;;;;;-145.68;100.00;75145.13;10469661;28;20712;-70
2023/10/17 02:38:45;;;;;;;5.43;2.33;;;;;;;-145.68;100.00;75151.13;10473671;28;20224;-69
2023/10/17 02:43:46;;;;;;;3.90;2.60;;;;;;;-145.68;100.00;75165.13;10476611;28;20283;-70
2023/10/17 02:48:47;;;;;;;3.30;2.13;;;;;;;-145.68;100.00;75173.13;10491510;28;20222;-69
2023/10/17 02:53:52;;;;;;;4.40;2.03;;;;;;;-145.68;100.00;75187.13;10474049;28;20272;-69
2023/10/17 02:59:06;;;;;;;2.03;1.80;;;;;;;-145.68;100.00;75195.13;10475782;28;20272;-69
2023/10/17 03:04:08;;;;;;;4.87;1.90;;;;;;;-145.68;100.00;75211.13;10472474;28;20206;-70
2023/10/17 03:09:16;;;;;;;4.60;2.20;;;;;;;-145.68;100.00;75235.13;10474438;28;20204;-69
2023/10/17 03:14:22;;;;;;;2.47;2.10;;;;;;;-145.68;100.00;75239.13;10483391;28;20267;-69
2023/10/17 03:19:26;;;;;;;8.23;2.37;;;;;;;-145.68;100.00;75255.13;10483135;28;20235;-70
2023/10/17 03:24:39;;;;;;;4.63;2.40;;;;;;;-145.68;100.00;75259.13;10454005;28;20190;-69
2023/10/17 03:29:46;;;;;;;7.17;3.10;;;;;;;-145.68;100.00;75267.13;10462987;28;20211;-69
2023/10/17 03:34:52;;;;;;;13.97;6.80;;;;;;;-145.68;100.00;75279.13;10471842;28;20307;-69
2023/10/17 03:39:59;;;;;;;5.23;3.70;;;;;;;-145.68;100.00;75299.13;10492307;28;20280;-70
2023/10/17 03:45:02;;;;;;;6.70;3.23;;;;;;;-145.68;100.00;75307.13;10482351;28;20190;-70
2023/10/17 03:50:07;;;;;;;5.70;3.90;;;;;;;-145.68;100.00;75301.13;10491955;28;20203;-71
2023/10/17 03:55:10;;;;;;;11.00;3.00;;;;;;;-145.68;100.00;75297.13;10491488;28;20211;-70
2023/10/17 04:00:25;;;;;;;3.10;2.80;;;;;;;-145.68;100.00;75309.13;10491547;28;20222;-70
2023/10/17 04:05:27;;;;;;;2.87;2.23;;;;;;;-145.68;100.00;75305.13;10491396;28;20184;-70
2023/10/17 04:10:37;;;;;;;7.30;2.60;;;;;;;-145.68;100.00;75319.13;10486519;28;20249;-69
2023/10/17 04:15:42;;;;;;;4.00;2.47;;;;;;;-145.68;100.00;75323.09;10481502;28;20272;-69
2023/10/17 04:20:46;;;;;;;6.03;2.70;;;;;;;-145.68;100.00;75329.09;10485206;28;20331;-69
2023/10/17 04:25:50;;;;;;;4.47;2.40;;;;;;;-145.68;100.00;75327.09;10485316;28;20632;-70
2023/10/17 04:30:50;;;;;;;5.67;2.63;;;;;;;-145.68;100.00;75339.09;10467418;28;20214;-69
2023/10/17 04:35:59;;;;;;;2.27;2.13;;;;;;;-145.68;100.00;75337.09;10484709;28;20286;-71
2023/10/17 04:46:25;;;;;;;3.37;2.70;;;;;;;-145.68;100.00;75361.09;10469433;28;20197;-69
2023/10/17 04:51:31;;;;;;;5.00;2.90;;;;;;;-145.68;100.00;75371.09;10483948;28;20633;-69
2023/10/17 04:56:53;;;;;;;5.20;2.50;;;;;;;-145.68;100.00;75369.09;10484074;28;20205;-69
2023/10/17 05:02:13;;;;;;;3.57;2.70;;;;;;;-145.68;100.00;75377.09;10481684;28;20236;-69
2023/10/17 05:07:16;;;;;;;6.07;2.70;;;;;;;-145.68;100.00;75375.09;10484079;28;20265;-69
2023/10/17 06:21:54;;;;;;;9.27;5.63;;;;;;;-145.68;100.00;75365.09;10481279;28;21024;-70
2023/10/17 06:27:11;;;;;;;11.23;5.87;;;;;;;-145.68;100.00;75365.09;10471781;28;20200;-69
2023/10/17 06:37:19;;;;;;;7.10;5.53;;;;;;;-145.68;100.00;75341.09;10481457;28;20195;-69
2023/10/17 06:42:27;;;;;;;12.43;6.03;;;;;;;-145.68;100.00;75329.09;10481529;28;20219;-69
2023/10/17 06:47:31;;;;;;;12.70;5.50;;;;;;;-145.68;100.00;75313.13;10480608;28;20191;-69
2023/10/17 06:53:15;;;;;;;8.97;5.00;;;;;;;-145.68;100.00;75289.13;10487600;28;20218;-69
2023/10/17 06:57:57;;;;;;;8.57;5.30;;;;;;;-145.68;100.00;75271.13;10477457;28;20226;-71
2023/10/17 07:02:58;;;;;;;8.13;5.13;;;;;;;-145.68;100.00;75261.13;10472883;28;20781;-68
2023/10/17 07:07:59;;;;;;;9.40;6.20;;;;;;;-145.68;100.00;75225.13;10486378;28;20183;-69
2023/10/17 07:13:41;;;;;;;8.47;5.60;;;;;;;-145.68;100.00;75205.13;10487177;28;20223;-69
2023/10/17 07:23:44;;;;;;;6.93;5.07;;;;;;;-145.68;100.00;75109.16;10485698;28;20192;-68
2023/10/17 07:28:45;;;;;;;9.37;4.80;;;;;;;-145.68;100.00;75085.16;10486123;28;20223;-67
2023/10/17 07:33:47;;;;;;;6.27;4.50;;;;;;;-145.68;100.00;75027.16;10473714;28;20690;-68
2023/10/17 07:38:47;;;;;;;9.97;4.70;;;;;;;-145.68;100.00;74953.19;10462908;28;20686;-69
2023/10/17 07:43:57;;;;;;;6.07;4.40;;;;;;;-145.68;100.00;74833.22;10481320;28;20198;-68
2023/10/17 07:49:04;;;;;;;5.50;3.80;;;;;;;-145.68;99.67;74687.25;10470995;28;20713;-65
2023/10/17 07:54:07;;;;;;;17.70;6.77;;;;;;;-145.68;88.70;74581.28;10475354;28;20768;-68
2023/10/17 07:59:08;;;;;;;12.63;5.00;;;;;;;-145.68;79.14;74497.31;10483065;28;20207;-67
2023/10/17 08:04:18;;;;;;;18.47;9.27;;;;;;;-145.68;72.59;74345.38;10482102;28;20571;-68
2023/10/17 08:09:24;;;;;;;10.45;5.47;;;;;;;-145.68;68.84;74415.34;10465856;28;20216;-67
2023/10/17 08:14:40;;;;;;;11.05;4.40;;;;;;;-145.68;63.32;74247.41;10462722;28;20223;-69
2023/10/17 08:25:01;;;;;;;4.82;2.65;;;;;;;-145.68;64.27;74359.38;10463146;28;20195;-73
2023/10/17 08:30:12;;;;;;;3.95;2.33;;;;;;;-145.68;66.19;74363.38;10480797;28;20194;-74
2023/10/17 08:35:36;;;;;;;7.00;2.88;;;;;;;-145.68;64.85;74335.38;10479148;28;20260;-74
2023/10/17 08:45:39;;;;;;;2.60;1.45;;;;;;;-145.68;55.01;74075.50;10479895;28;20575;-74
2023/10/17 08:50:43;;;;;;;4.43;1.95;;;;;;;-145.68;56.14;74107.47;10475589;28;20228;-75
2023/10/17 08:55:43;;;;;;;6.32;2.28;;;;;;;-145.68;54.94;74035.50;10465884;28;20227;-75
2023/10/17 09:06:59;;;;;;;8.35;2.10;;;;;;;-145.68;56.63;74061.50;10463604;28;20226;-75
2023/10/17 09:12:01;;;;;;;4.60;2.13;;;;;;;-145.68;55.81;73951.53;10467829;28;20619;-75
2023/10/17 09:17:30;;;;;;;3.90;1.83;;;;;;;-145.68;50.79;73691.69;10467483;28;20232;-75
2023/10/17 09:22:30;;;;;;;3.67;2.13;;;;;;;-145.68;46.21;73519.78;10477020;28;20215;-75
2023/10/17 09:27:31;;;;;;;2.47;1.30;;;;;;;-145.68;45.00;73579.75;10476463;28;20548;-75
2023/10/17 09:32:37;;;;;;;7.22;1.85;;;;;;;-145.68;43.83;73633.72;10479700;28;20211;-75
2023/10/17 09:37:41;;;;;;;7.45;2.83;;;;;;;-145.68;44.05;73647.72;10478685;28;20191;-75
2023/10/17 09:42:46;;;;;;;4.85;1.88;;;;;;;-145.68;43.33;73581.75;10492058;28;20838;-75
2023/10/17 09:47:52;;;;;;;2.58;1.38;;;;;;;-145.68;43.72;73499.78;10481059;28;20254;-75
2023/10/17 09:52:54;;;;;;;2.63;1.20;;;;;;;-145.68;40.38;73431.84;10477735;28;20212;-75
2023/10/17 09:58:02;;;;;;;4.88;1.50;;;;;;;-145.68;42.27;73653.69;10477108;28;21024;-75
2023/10/17 10:03:04;;;;;;;2.85;1.70;;;;;;;-145.68;44.21;74131.47;10473803;28;20199;-74
2023/10/17 10:08:27;;;;;;;5.10;1.70;;;;;;;-145.68;44.46;74113.47;10478767;28;20283;-75
2023/10/17 10:13:28;;;;;;;4.53;2.25;;;;;;;-145.68;45.63;74207.44;10475024;28;20722;-74
2023/10/17 10:18:40;;;;;;;4.15;2.03;;;;;;;-145.68;44.47;74183.44;10476181;28;20188;-75
2023/10/17 10:23:43;;;;;;;1.55;1.00;;;;;;;-145.68;44.90;74195.44;10481001;28;20227;-74
2023/10/17 10:28:44;;;;;;;1.42;1.00;;;;;;;-145.68;45.34;74173.44;10483374;28;20641;-74
2023/10/17 10:33:44;;;;;;;1.50;1.00;;;;;;;-145.68;46.33;74225.41;10480232;28;20243;-74
2023/10/17 10:38:45;;;;;;;1.48;1.30;;;;;;;-145.68;45.81;74163.44;10484783;28;20191;-75
2023/10/17 10:43:47;;;;;;;1.50;1.40;;;;;;;-145.68;45.30;74103.47;10485054;28;20187;-75
2023/10/17 10:48:51;;;;;;;1.73;1.00;;;;;;;-145.68;45.37;74147.47;10485076;28;20215;-75
2023/10/17 10:53:58;;;;;;;1.70;1.25;;;;;;;-145.68;45.01;74129.47;10469743;28;20780;-75
2023/10/17 10:59:02;;;;;;;1.63;1.35;;;;;;;-145.68;45.29;74061.50;10475289;28;20184;-73
2023/10/17 11:04:07;;;;;;;4.05;1.42;;;;;;;-145.68;44.81;74125.47;10481950;28;20721;-76
2023/10/17 11:09:16;;;;;;;1.73;1.20;;;;;;;-145.68;44.52;74063.50;10485173;28;20188;-75
2023/10/17 11:14:16;;;;;;;2.08;1.30;;;;;;;-145.68;43.96;74113.47;10474330;28;20220;-75
2023/10/17 11:19:21;;;;;;;3.17;1.60;;;;;;;-145.68;44.55;74077.50;10475927;28;20187;-75
2023/10/17 11:24:23;;;;;;;2.40;1.27;;;;;;;-145.68;41.77;73777.63;10484530;28;20219;-76
2023/10/17 11:29:26;;;;;;;4.38;1.48;;;;;;;-145.68;39.87;73681.69;10481995;28;20229;-76
2023/10/17 11:34:30;;;;;;;1.70;1.23;;;;;;;-145.68;41.64;73963.53;10482600;28;20220;-75
2023/10/17 11:39:41;;;;;;;2.00;1.80;;;;;;;-145.68;44.29;74109.47;10484017;28;20654;-76
2023/10/17 11:44:46;;;;;;;2.55;1.58;;;;;;;-145.68;45.23;74099.47;10472634;28;20176;-75
2023/10/17 11:49:49;;;;;;;4.07;1.60;;;;;;;-145.68;45.98;74161.44;10480218;28;20208;-75
2023/10/17 11:55:11;;;;;;;2.22;1.30;;;;;;;-145.68;45.05;74137.47;10483273;28;20216;-75
2023/10/17 12:05:18;;;;;;;2.35;1.50;;;;;;;-145.68;42.55;73891.56;10477832;28;20205;-75
2023/10/17 12:10:19;;;;;;;1.75;1.30;;;;;;;-145.68;42.86;74011.53;10482250;28;20252;-76
2023/10/17 12:15:23;;;;;;;3.05;1.60;;;;;;;-145.68;43.62;74125.47;10481797;28;20204;-76
2023/10/17 12:20:25;;;;;;;1.23;1.10;;;;;;;-145.68;44.92;74199.44;10480536;28;20356;-75
2023/10/17 12:25:26;;;;;;;1.95;1.23;;;;;;;-145.68;45.44;74211.44;10481221;28;20278;-76
2023/10/17 12:30:27;;;;;;;1.40;1.30;;;;;;;-145.68;44.92;74241.41;10475327;28;20184;-75
2023/10/17 12:35:30;;;;;;;6.87;5.60;;;;;;;-145.68;46.32;74255.41;10481838;28;20746;-75
2023/10/17 12:40:30;;;;;;;6.95;3.53;;;;;;;-145.68;46.25;74203.44;10474608;28;20222;-75
2023/10/17 12:45:31;;;;;;;4.82;2.50;;;;;;;-145.68;46.86;74207.44;10464040;28;20213;-75
2023/10/17 12:50:33;;;;;;;2.40;1.83;;;;;;;-145.68;47.00;74219.44;10476875;28;20215;-75
2023/10/17 12:55:35;;;;;;;2.10;1.50;;;;;;;-145.68;46.41;74275.41;10477106;28;20716;-75
2023/10/17 13:00:35;;;;;;;2.87;1.90;;;;;;;-145.68;47.61;74333.38;10460832;28;20199;-74
2023/10/17 13:05:37;;;;;;;4.30;2.10;;;;;;;-145.68;47.50;74213.44;10461491;28;20184;-75
2023/10/17 13:10:37;;;;;;;3.73;2.30;;;;;;;-145.68;47.59;74205.44;10461093;28;20222;-75
2023/10/17 13:15:38;;;;;;;3.55;2.60;;;;;;;-145.68;44.95;74051.50;10462769;28;20218;-75
2023/10/17 13:20:42;;;;;;;3.38;2.15;;;;;;;-145.68;43.29;73913.56;10466749;28;20223;-76
2023/10/17 13:25:43;;;;;;;4.45;2.15;;;;;;;-145.68;43.72;73985.53;10479251;28;20207;-75
2023/10/17 13:30:44;;;;;;;3.83;1.80;;;;;;;-145.68;43.00;73997.53;10477852;28;20203;-74
2023/10/17 13:35:45;;;;;;;3.15;2.03;;;;;;;-145.68;43.48;73959.53;10477646;28;20849;-74
2023/10/17 13:40:46;;;;;;;1.42;1.30;;;;;;;-145.68;40.57;73681.69;10478783;28;20202;-74
2023/10/17 13:45:46;;;;;;;3.40;1.75;;;;;;;-145.68;40.81;73619.72;10479102;28;20227;-76
2023/10/17 13:50:46;;;;;;;4.22;1.50;;;;;;;-145.68;38.81;73613.72;10468330;28;20212;-76
2023/10/17 13:55:47;;;;;;;2.47;1.17;;;;;;;-145.68;39.24;73683.69;10478524;28;20216;-76
2023/10/17 14:00:54;;;;;;;1.25;1.10;;;;;;;-145.68;39.76;73679.69;10476523;28;20211;-76
2023/10/17 14:05:54;;;;;;;3.45;1.40;;;;;;;-145.68;39.96;73827.59;10487984;28;20191;-76
2023/10/17 14:10:55;;;;;;;1.55;1.20;;;;;;;-145.68;40.93;73825.63;10482616;28;20191;-76
2023/10/17 14:15:55;;;;;;;8.07;1.35;;;;;;;-145.68;40.22;73783.63;10479469;28;20246;-75
2023/10/17 14:21:04;;;;;;;2.15;1.20;;;;;;;-145.68;39.74;73645.72;10474834;28;20241;-76
2023/10/17 14:26:09;;;;;;;2.20;1.15;;;;;;;-145.68;37.89;73523.78;10488598;28;20220;-76
2023/10/17 14:31:10;;;;;;;1.38;1.05;;;;;;;-145.68;39.00;73783.63;10478687;28;20233;-75
2023/10/17 14:36:11;;;;;;;3.22;1.35;;;;;;;-145.68;39.24;73661.69;10486695;28;20239;-75
2023/10/17 14:41:11;;;;;;;2.40;1.42;;;;;;;-145.68;39.13;73739.66;10483611;28;20192;-75
2023/10/17 14:46:13;;;;;;;2.72;1.40;;;;;;;-145.68;36.85;73449.81;10471348;28;20563;-75
2023/10/17 14:51:14;;;;;;;1.42;1.20;;;;;;;-145.68;37.04;73511.78;10488053;28;20218;-75
2023/10/17 14:56:14;;;;;;;2.97;1.23;;;;;;;-145.68;35.47;73305.91;10486320;28;20258;-76
2023/10/17 15:01:16;;;;;;;1.60;1.05;;;;;;;-145.68;35.47;73363.88;10482009;28;20199;-75
2023/10/17 15:06:16;;;;;;;3.40;1.30;;;;;;;-145.68;39.03;73787.63;10465949;28;20717;-75
2023/10/17 15:11:17;;;;;;;2.30;1.27;;;;;;;-145.68;42.73;74061.50;10462756;28;20199;-74
2023/10/17 15:16:21;;;;;;;6.20;2.17;;;;;;;-145.68;45.98;74227.41;10468013;28;20215;-73
2023/10/17 15:21:22;;;;;;;3.83;1.70;;;;;;;-145.68;47.78;74327.38;10467001;28;20239;-74
2023/10/17 15:26:25;;;;;;;37.43;19.57;;;;;;;-145.68;49.40;74375.38;10472525;28;20194;-74
2023/10/17 15:31:27;;;;;;;6.13;4.20;;;;;;;-145.68;51.33;74447.34;10483051;28;20885;-74
2023/10/17 15:36:29;;;;;;;3.27;2.97;;;;;;;-145.68;51.07;74411.34;10482988;28;20677;-73
2023/10/17 15:41:30;;;;;;;4.40;3.20;;;;;;;-145.68;51.74;74407.34;10468233;28;20674;-74
2023/10/17 15:46:31;;;;;;;9.03;8.13;;;;;;;-145.68;52.53;74501.31;10466661;28;20213;-74
2023/10/17 15:51:31;;;;;;;4.77;4.33;;;;;;;-145.68;54.79;74533.31;10473598;28;20215;-74
2023/10/17 15:56:31;;;;;;;5.87;4.53;;;;;;;-145.68;55.79;74601.28;10461165;28;20195;-73
2023/10/17 16:01:32;;;;;;;6.63;3.20;;;;;;;-145.68;57.50;74607.28;10466951;28;20188;-73
2023/10/17 16:06:32;;;;;;;6.73;4.10;;;;;;;-145.68;59.14;74671.25;10470808;28;20731;-72
2023/10/17 16:11:32;;;;;;;40.73;21.17;;;;;;;-145.68;60.96;74687.25;10480098;28;20211;-74
2023/10/17 16:16:34;;;;;;;16.60;10.53;;;;;;;-145.68;62.39;74723.25;10486255;28;20942;-73
2023/10/17 16:21:35;;;;;;;10.33;6.10;;;;;;;-145.68;64.26;74767.22;10482789;28;20233;-73
2023/10/17 16:26:35;;;;;;;5.97;4.20;;;;;;;-145.68;66.48;74807.22;10483672;28;20187;-73
2023/10/17 16:31:35;;;;;;;6.90;4.23;;;;;;;-145.68;69.06;74839.22;10475169;28;20242;-73
2023/10/17 16:36:36;;;;;;;7.53;4.73;;;;;;;-145.68;71.96;74891.19;10484590;28;20187;-73
2023/10/17 16:41:37;;;;;;;6.90;4.13;;;;;;;-145.68;74.94;74905.19;10484530;28;20183;-73
2023/10/17 16:46:41;;;;;;;8.07;4.47;;;;;;;-145.68;77.55;74929.19;10482983;28;20179;-74
2023/10/17 16:51:41;;;;;;;8.27;5.30;;;;;;;-145.68;80.67;74943.19;10483357;28;20269;-75
2023/10/17 16:56:42;;;;;;;6.63;4.17;;;;;;;-145.68;82.77;74971.19;10483831;28;20187;-74
2023/10/17 17:01:42;;;;;;;26.67;15.37;;;;;;;-145.68;84.83;74993.16;10478528;28;20279;-74
2023/10/17 17:06:44;;;;;;;7.43;6.00;;;;;;;-145.68;87.35;75023.16;10481084;28;20222;-75
2023/10/17 17:11:44;;;;;;;7.67;6.63;;;;;;;-145.68;89.65;75037.16;10481577;28;20262;-74
2023/10/17 17:16:48;;;;;;;7.60;6.30;;;;;;;-145.68;91.58;75047.16;10481513;28;20341;-74
2023/10/17 17:21:50;;;;;;;9.03;5.20;;;;;;;-145.68;92.71;75063.16;10477481;28;20269;-74
2023/10/17 17:26:56;;;;;;;10.53;4.70;;;;;;;-145.68;94.48;75083.16;10465662;28;20226;-74
2023/10/17 17:31:57;;;;;;;7.00;4.20;;;;;;;-145.68;95.99;75091.16;10471539;28;20223;-74
2023/10/17 17:36:57;;;;;;;13.50;8.50;;;;;;;-145.68;97.97;75123.16;10471789;28;20195;-74
2023/10/17 17:41:58;;;;;;;7.97;4.97;;;;;;;-145.68;100.00;75145.13;10480977;28;20606;-74
2023/10/17 17:46:58;;;;;;;7.90;4.77;;;;;;;-145.68;100.00;75135.16;10479465;28;20180;-74
2023/10/17 17:51:58;;;;;;;9.20;4.70;;;;;;;-145.68;100.00;75147.13;10476798;28;20219;-74
2023/10/17 17:56:59;;;;;;;8.43;5.73;;;;;;;-145.68;100.00;75159.13;10474845;28;20203;-74
2023/10/17 18:02:01;;;;;;;9.30;5.53;;;;;;;-145.68;100.00;75173.13;10470022;28;20187;-74
2023/10/17 18:07:03;;;;;;;9.20;5.33;;;;;;;-145.68;100.00;75187.13;10475267;28;20199;-74
2023/10/17 18:12:04;;;;;;;10.53;5.30;;;;;;;-145.68;100.00;75187.13;10481972;28;20674;-74
2023/10/17 18:17:04;;;;;;;8.57;5.20;;;;;;;-145.68;100.00;75191.13;10481035;28;20249;-74
2023/10/17 18:22:05;;;;;;;12.77;6.53;;;;;;;-145.68;100.00;75207.13;10481615;28;20246;-74
2023/10/17 18:27:05;;;;;;;12.53;6.20;;;;;;;-145.68;100.00;75213.13;10482039;28;20665;-74
2023/10/17 18:32:06;;;;;;;7.37;4.80;;;;;;;-145.68;100.00;75223.13;10470129;28;20230;-74
2023/10/17 18:37:06;;;;;;;10.80;5.50;;;;;;;-145.68;100.00;75219.13;10479782;28;20718;-74
2023/10/17 18:42:07;;;;;;;8.50;6.17;;;;;;;-145.68;100.00;75231.13;10475720;28;20199;-74
2023/10/17 18:47:07;;;;;;;9.70;5.47;;;;;;;-145.68;100.00;75235.13;10481823;28;20236;-74
2023/10/17 18:52:08;;;;;;;10.43;5.33;;;;;;;-145.68;100.00;75247.13;10488508;28;20229;-74
2023/10/17 18:57:08;;;;;;;12.20;6.30;;;;;;;-145.68;100.00;75259.13;10483286;28;20191;-74
2023/10/17 19:02:08;;;;;;;7.17;5.37;;;;;;;-145.68;100.00;75259.13;10486703;28;20187;-74
2023/10/17 19:07:11;;;;;;;8.57;5.07;;;;;;;-145.68;100.00;75257.13;10484390;28;20297;-74
2023/10/17 19:12:17;;;;;;;8.20;4.90;;;;;;;-145.68;100.00;75261.13;10483637;28;20226;-73
2023/10/17 19:17:47;;;;;;;9.50;6.70;;;;;;;-145.68;100.00;75283.13;10488179;28;20183;-74
2023/10/17 19:22:48;;;;;;;11.50;7.20;;;;;;;-145.68;100.00;75301.13;10480787;28;20691;-73
2023/10/17 19:27:48;;;;;;;8.63;5.97;;;;;;;-145.68;100.00;75303.13;10478684;28;20199;-74
2023/10/17 19:32:48;;;;;;;12.53;7.20;;;;;;;-145.68;100.00;75323.09;10465737;28;20204;-73
2023/10/17 19:37:49;;;;;;;10.03;7.03;;;;;;;-145.68;100.00;75327.09;10468856;28;20195;-74
2023/10/17 19:42:50;;;;;;;8.80;6.30;;;;;;;-145.68;100.00;75327.09;10468357;28;20191;-73
2023/10/17 19:47:52;;;;;;;13.13;6.50;;;;;;;-145.68;100.00;75321.09;10461707;28;20208;-74
2023/10/17 19:52:53;;;;;;;10.80;6.63;;;;;;;-145.68;100.00;75315.13;10484336;28;20218;-73
2023/10/17 19:57:53;;;;;;;11.53;5.47;;;;;;;-145.68;100.00;75325.09;10483042;28;20196;-74
2023/10/17 20:02:55;;;;;;;9.53;6.10;;;;;;;-145.68;100.00;75333.09;10484156;28;20187;-73
2023/10/17 20:07:56;;;;;;;9.63;6.40;;;;;;;-145.68;100.00;75349.09;10483644;28;20196;-73
2023/10/17 20:12:57;;;;;;;8.87;6.07;;;;;;;-145.68;100.00;75345.09;10483876;28;20210;-73
2023/10/17 20:17:57;;;;;;;12.03;6.93;;;;;;;-145.68;100.00;75347.09;10479742;28;20200;-75
2023/10/17 20:22:58;;;;;;;7.27;5.27;;;;;;;-145.68;100.00;75351.09;10471172;28;20219;-74
2023/10/17 20:27:58;;;;;;;9.40;6.03;;;;;;;-145.68;100.00;75347.09;10471016;28;20529;-73
2023/10/17 20:32:59;;;;;;;7.93;6.03;;;;;;;-145.68;100.00;75355.09;10464393;28;20223;-74
2023/10/17 20:37:59;;;;;;;14.60;6.63;;;;;;;-145.68;100.00;75359.09;10489369;28;20183;-73
2023/10/17 20:43:00;;;;;;;9.90;6.17;;;;;;;-145.68;100.00;75363.09;10481514;28;20198;-74
2023/10/17 20:48:03;;;;;;;9.60;5.97;;;;;;;-145.68;100.00;75363.09;10482743;28;20617;-74
2023/10/17 20:53:13;;;;;;;12.53;6.03;;;;;;;-145.68;100.00;75375.09;10483099;28;20314;-74
2023/10/17 20:58:14;;;;;;;11.40;5.80;;;;;;;-145.68;100.00;75377.09;10483376;28;20213;-74
2023/10/17 21:03:15;;;;;;;12.13;6.03;;;;;;;-145.68;100.00;75391.09;10483169;28;20175;-73
2023/10/17 21:08:26;;;;;;;17.20;6.63;;;;;;;-145.68;100.00;75391.09;10480073;28;20663;-74
2023/10/17 21:13:28;;;;;;;9.60;6.57;;;;;;;-145.68;100.00;75391.09;10475473;28;20222;-75
2023/10/17 21:18:28;;;;;;;10.67;6.40;;;;;;;-145.68;100.00;75399.09;10480377;28;20193;-75
2023/10/17 21:23:29;;;;;;;10.00;6.57;;;;;;;-145.68;100.00;75419.09;10481143;28;20695;-73
2023/10/17 21:28:31;;;;;;;9.63;6.90;;;;;;;-145.68;100.00;75431.09;10479992;28;20560;-73
2023/10/17 21:33:32;;;;;;;14.80;6.83;;;;;;;-145.68;100.00;75427.09;10480263;28;20218;-74
2023/10/17 21:38:33;;;;;;;9.53;6.47;;;;;;;-145.68;100.00;75427.09;10481900;28;20195;-74
2023/10/17 21:43:33;;;;;;;12.10;6.70;;;;;;;-145.68;100.00;75431.09;10481856;28;20186;-74
2023/10/17 21:48:34;;;;;;;10.03;6.03;;;;;;;-145.68;100.00;75447.09;10481101;28;20214;-75
2023/10/17 21:53:36;;;;;;;10.83;6.40;;;;;;;-145.68;100.00;75445.09;10481053;28;20207;-74
2023/10/17 21:58:40;;;;;;;13.53;6.17;;;;;;;-145.68;100.00;75457.09;10472179;28;20194;-72
2023/10/17 22:03:41;;;;;;;13.10;6.40;;;;;;;-145.68;100.00;75471.09;10482383;28;20332;-74
2023/10/17 22:08:46;;;;;;;10.57;6.30;;;;;;;-145.68;100.00;75485.09;10480609;28;20209;-73
2023/10/17 22:13:49;;;;;;;15.03;7.33;;;;;;;-145.68;100.00;75507.09;10481007;28;20216;-72
2023/10/17 22:18:49;;;;;;;9.80;6.43;;;;;;;-145.68;100.00;75503.09;10463512;28;20210;-74
2023/10/17 22:23:50;;;;;;;12.47;6.77;;;;;;;-145.68;100.00;75503.09;10488247;28;20246;-74
2023/10/17 22:28:50;;;;;;;11.87;6.50;;;;;;;-145.68;100.00;75511.09;10489063;28;20205;-74
2023/10/17 22:33:51;;;;;;;9.97;6.47;;;;;;;-145.68;100.00;75507.09;10488088;28;20696;-74
2023/10/17 22:38:51;;;;;;;11.30;7.03;;;;;;;-145.68;100.00;75503.09;10487537;28;20850;-75
2023/10/17 22:43:52;;;;;;;11.70;7.10;;;;;;;-145.68;100.00;75509.09;10488054;28;20204;-75
2023/10/17 22:48:52;;;;;;;13.40;7.93;;;;;;;-145.68;100.00;75499.09;10488271;28;20762;-75
2023/10/17 22:53:53;;;;;;;13.13;7.43;;;;;;;-145.68;100.00;75495.09;10487439;28;20241;-75
2023/10/17 22:58:53;;;;;;;14.03;7.50;;;;;;;-145.68;100.00;75503.09;10488137;28;20253;-74
2023/10/17 23:03:54;;;;;;;13.87;7.60;;;;;;;-145.68;100.00;75519.09;10487901;28;20288;-75
2023/10/17 23:08:54;;;;;;;10.63;7.40;;;;;;;-145.68;100.00;75515.09;10487271;28;20194;-75
2023/10/17 23:13:56;;;;;;;10.63;7.10;;;;;;;-145.68;100.00;75511.09;10488648;28;20224;-74
2023/10/17 23:18:57;;;;;;;10.57;6.97;;;;;;;-145.68;100.00;75513.09;10489437;28;20187;-74
2023/10/17 23:23:58;;;;;;;13.93;7.20;;;;;;;-145.68;100.00;75509.09;10489649;28;20729;-74
2023/10/17 23:28:58;;;;;;;10.87;6.33;;;;;;;-145.68;100.00;75499.09;10487360;28;20260;-75
2023/10/17 23:33:59;;;;;;;12.63;7.10;;;;;;;-145.68;100.00;75501.09;10485355;28;20253;-75
2023/10/17 23:38:59;;;;;;;10.00;7.23;;;;;;;-145.68;100.00;75489.09;10484954;28;20218;-75
2023/10/17 23:44:00;;;;;;;10.37;6.90;;;;;;;-145.68;100.00;75479.09;10486226;28;20182;-74
2023/10/17 23:49:00;;;;;;;13.73;8.07;;;;;;;-145.68;100.00;75449.09;10488049;28;20854;-74
2023/10/17 23:54:00;;;;;;;10.57;6.87;;;;;;;-145.68;100.00;75415.09;10485157;28;20203;-75
2023/10/17 23:59:03;;;;;;;10.90;7.23;;;;;;;-145.68;100.00;75385.09;10486290;28;20248;-74
